createdAt,value
2022-08-17T00:00:05.766Z,41.88
2022-08-17T00:03:18.082Z,41.95
2022-08-17T00:05:55.455Z,41.99
2022-08-17T00:08:25.763Z,41.93
2022-08-17T00:10:54.784Z,41.88
2022-08-17T00:13:32.765Z,41.73
2022-08-17T00:16:07.412Z,41.89
2022-08-17T00:19:01.851Z,41.66
2022-08-17T00:21:23.781Z,41.95
2022-08-17T00:23:53.632Z,41.97
2022-08-17T00:26:43.144Z,42.21
2022-08-17T00:29:10.106Z,42.35
2022-08-17T00:31:47.527Z,42.45
2022-08-17T00:34:15.265Z,42.63
2022-08-17T00:36:42.746Z,43.97
2022-08-17T00:39:10.309Z,44.27
2022-08-17T00:41:42.256Z,44.55
2022-08-17T00:44:12.278Z,44.26
2022-08-17T00:46:42.659Z,45.15
2022-08-17T00:49:11.625Z,44.59
2022-08-17T00:51:45.059Z,44.33
2022-08-17T00:54:27.180Z,43.86
2022-08-17T00:57:02.954Z,43.86
2022-08-17T00:59:37.877Z,43.74
2022-08-17T01:02:06.908Z,43.29
2022-08-17T01:04:34.822Z,43.24
2022-08-17T01:07:04.485Z,43.06
2022-08-17T01:09:32.331Z,43.16
2022-08-17T01:12:00.439Z,43.32
2022-08-17T01:14:28.082Z,43.01
2022-08-17T01:16:55.928Z,43.46
2022-08-17T01:19:29.789Z,43.32
2022-08-17T01:22:03.927Z,43.35
2022-08-17T01:24:33.851Z,43.34
2022-08-17T01:27:02.242Z,43.66
2022-08-17T01:29:31.246Z,43.49
2022-08-17T01:32:02.335Z,43.54
2022-08-17T01:34:42.089Z,43.39
2022-08-17T01:37:13.636Z,43.78
2022-08-17T01:39:54.977Z,44.08
2022-08-17T01:42:40.416Z,44.27
2022-08-17T01:45:18.175Z,44.10
2022-08-17T01:47:46.185Z,43.96
2022-08-17T01:50:17.261Z,43.82
2022-08-17T01:52:46.197Z,44.05
2022-08-17T01:55:16.479Z,43.81
2022-08-17T01:57:45.715Z,43.74
2022-08-17T02:00:14.273Z,43.89
2022-08-17T02:02:42.723Z,43.97
2022-08-17T02:05:10.389Z,43.92
2022-08-17T02:07:59.700Z,44.10
2022-08-17T02:10:32.891Z,44.09
2022-08-17T02:13:03.651Z,43.99
2022-08-17T02:15:32.122Z,44.03
2022-08-17T02:17:59.605Z,44.19
2022-08-17T02:20:41.286Z,44.25
2022-08-17T02:23:12.141Z,44.18
2022-08-17T02:25:40.543Z,44.20
2022-08-17T02:28:08.101Z,44.16
2022-08-17T02:30:59.513Z,44.18
2022-08-17T02:33:23.499Z,44.19
2022-08-17T02:36:12.116Z,44.42
2022-08-17T02:38:40.706Z,44.80
2022-08-17T02:41:08.349Z,44.18
2022-08-17T02:43:36.176Z,44.13
2022-08-17T02:46:03.751Z,44.27
2022-08-17T02:48:32.049Z,44.32
2022-08-17T02:51:00.888Z,44.39
2022-08-17T02:53:35.551Z,44.48
2022-08-17T02:56:04.456Z,44.55
2022-08-17T02:58:35.818Z,44.55
2022-08-17T03:01:09.722Z,45.25
2022-08-17T03:03:37.754Z,45.56
2022-08-17T03:06:07.556Z,45.61
2022-08-17T03:08:36.402Z,45.73
2022-08-17T03:11:04.204Z,46.23
2022-08-17T03:13:31.998Z,46.51
2022-08-17T03:15:59.461Z,46.67
2022-08-17T03:18:28.025Z,47.16
2022-08-17T03:20:59.375Z,47.28
2022-08-17T03:23:27.611Z,46.77
2022-08-17T03:25:58.277Z,46.58
2022-08-17T03:28:26.249Z,46.31
2022-08-17T03:30:54.317Z,46.71
2022-08-17T03:33:22.373Z,47.16
2022-08-17T03:35:50.277Z,47.09
2022-08-17T03:38:18.303Z,46.65
2022-08-17T03:40:56.729Z,46.13
2022-08-17T03:43:31.547Z,46.22
2022-08-17T03:46:33.917Z,46.20
2022-08-17T03:49:25.635Z,46.74
2022-08-17T03:52:13.420Z,46.53
2022-08-17T03:55:00.838Z,46.49
2022-08-17T03:57:29.205Z,46.24
2022-08-17T03:59:57.167Z,46.33
2022-08-17T04:02:28.537Z,46.11
2022-08-17T04:04:56.803Z,46.14
2022-08-17T04:07:27.594Z,45.75
2022-08-17T04:09:55.254Z,45.63
2022-08-17T04:12:24.318Z,45.79
2022-08-17T04:14:54.757Z,45.41
2022-08-17T04:17:26.219Z,46.09
2022-08-17T04:19:54.381Z,46.16
2022-08-17T04:22:33.378Z,45.86
2022-08-17T04:25:16.941Z,45.66
2022-08-17T04:27:44.425Z,45.44
2022-08-17T04:30:12.814Z,45.66
2022-08-17T04:33:06.043Z,45.66
2022-08-17T04:35:39.432Z,45.68
2022-08-17T04:38:09.569Z,45.62
2022-08-17T04:40:55.973Z,45.20
2022-08-17T04:43:25.919Z,45.05
2022-08-17T04:46:02.805Z,44.47
2022-08-17T04:48:36.584Z,44.18
2022-08-17T04:51:09.860Z,44.28
2022-08-17T04:53:42.476Z,44.40
2022-08-17T04:56:16.968Z,44.59
2022-08-17T04:58:49.753Z,44.68
2022-08-17T05:01:22.931Z,44.26
2022-08-17T05:03:53.565Z,44.12
2022-08-17T05:06:21.674Z,43.44
2022-08-17T05:08:49.576Z,43.57
2022-08-17T05:11:17.490Z,43.38
2022-08-17T05:13:45.346Z,42.80
2022-08-17T05:16:12.866Z,42.95
2022-08-17T05:18:40.370Z,42.95
2022-08-17T05:21:08.766Z,43.05
2022-08-17T05:23:42.676Z,43.29
2022-08-17T05:26:26.190Z,43.03
2022-08-17T05:28:57.113Z,43.50
2022-08-17T05:31:28.734Z,43.12
2022-08-17T05:33:56.343Z,42.46
2022-08-17T05:36:43.723Z,41.61
2022-08-17T05:39:15.983Z,41.48
2022-08-17T05:41:48.101Z,41.51
2022-08-17T05:44:16.451Z,41.65
2022-08-17T05:46:48.632Z,42.08
2022-08-17T05:49:19.303Z,41.67
2022-08-17T05:51:57.349Z,41.34
2022-08-17T05:54:34.541Z,41.22
2022-08-17T05:57:23.239Z,40.18
2022-08-17T06:00:07.525Z,39.23
2022-08-17T06:03:12.647Z,39.74
2022-08-17T06:06:01.309Z,39.65
2022-08-17T06:08:39.569Z,40.61
2022-08-17T06:11:23.103Z,39.88
2022-08-17T06:14:09.328Z,39.95
2022-08-17T06:16:44.014Z,39.43
2022-08-17T06:19:19.467Z,38.99
2022-08-17T06:21:50.317Z,38.90
2022-08-17T06:24:38.214Z,39.15
2022-08-17T06:27:36.734Z,39.33
2022-08-17T06:30:21.694Z,39.57
2022-08-17T06:32:51.160Z,39.43
2022-08-17T06:35:42.346Z,39.45
2022-08-17T06:38:37.565Z,39.94
2022-08-17T06:41:18.045Z,39.46
2022-08-17T06:43:50.869Z,39.19
2022-08-17T06:46:21.227Z,39.21
2022-08-17T06:49:25.376Z,39.20
2022-08-17T06:52:01.088Z,37.91
2022-08-17T06:54:48.988Z,39.48
2022-08-17T06:57:28.336Z,38.93
2022-08-17T07:00:00.146Z,37.85
2022-08-17T07:02:52.075Z,37.95
2022-08-17T07:05:34.397Z,37.48
2022-08-17T07:08:11.676Z,38.88
2022-08-17T07:10:44.942Z,38.69
2022-08-17T07:13:25.548Z,38.04
2022-08-17T07:15:58.493Z,37.50
2022-08-17T07:18:30.263Z,37.20
2022-08-17T07:21:07.481Z,36.62
2022-08-17T07:24:04.096Z,36.41
2022-08-17T07:26:31.857Z,37.04
2022-08-17T07:28:59.967Z,37.16
2022-08-17T07:33:25.908Z,35.41
2022-08-17T07:35:54.097Z,35.41
2022-08-17T07:38:33.240Z,35.05
2022-08-17T07:41:05.436Z,35.01
2022-08-17T07:43:41.969Z,35.46
2022-08-17T07:46:54.783Z,35.13
2022-08-17T07:49:33.853Z,35.79
2022-08-17T07:52:47.962Z,35.51
2022-08-17T07:54:54.491Z,34.58
2022-08-17T07:57:29.406Z,34.66
2022-08-17T08:00:01.485Z,34.72
2022-08-17T08:02:43.183Z,33.82
2022-08-17T08:05:13.020Z,35.15
2022-08-17T08:07:55.437Z,34.53
2022-08-17T08:10:38.585Z,34.45
2022-08-17T08:13:29.707Z,33.17
2022-08-17T08:16:21.387Z,33.08
2022-08-17T08:18:56.038Z,32.62
2022-08-17T08:21:49.333Z,34.44
2022-08-17T08:24:42.029Z,33.99
2022-08-17T08:27:27.193Z,32.84
2022-08-17T08:30:05.261Z,32.35
2022-08-17T08:33:08.525Z,32.78
2022-08-17T08:37:15.934Z,33.37
2022-08-17T08:39:43.700Z,32.07
2022-08-17T08:42:25.102Z,32.00
2022-08-17T08:45:16.123Z,31.64
2022-08-17T08:48:46.079Z,30.88
2022-08-17T08:51:33.342Z,31.43
2022-08-17T08:54:26.573Z,29.32
2022-08-17T08:57:25.124Z,30.05
2022-08-17T09:00:07.183Z,30.23
2022-08-17T09:02:40.846Z,29.49
2022-08-17T09:05:15.588Z,28.35
2022-08-17T09:08:00.121Z,27.46
2022-08-17T09:10:32.059Z,26.69
2022-08-17T09:13:10.212Z,27.16
2022-08-17T09:15:41.306Z,28.09
2022-08-17T09:19:03.216Z,28.90
2022-08-17T09:21:33.696Z,29.31
2022-08-17T09:24:05.839Z,28.44
2022-08-17T09:26:39.491Z,27.54
2022-08-17T09:29:13.905Z,28.15
2022-08-17T09:31:59.706Z,27.79
2022-08-17T09:34:38.990Z,27.36
2022-08-17T09:37:22.808Z,27.20
2022-08-17T09:40:14.161Z,26.90
2022-08-17T09:43:03.173Z,27.40
2022-08-17T09:45:39.717Z,26.33
2022-08-17T09:48:14.372Z,26.56
2022-08-17T09:51:03.894Z,25.72
2022-08-17T09:53:36.106Z,25.88
2022-08-17T09:56:14.135Z,25.08
2022-08-17T09:58:50.507Z,24.73
2022-08-17T10:01:24.126Z,24.84
2022-08-17T10:04:04.437Z,24.32
2022-08-17T10:06:43.734Z,24.78
2022-08-17T10:09:24.563Z,24.60
2022-08-17T10:12:20.526Z,24.54
2022-08-17T10:14:57.447Z,23.87
2022-08-17T10:17:36.665Z,22.83
2022-08-17T10:20:34.282Z,22.51
2022-08-17T10:23:34.631Z,22.64
2022-08-17T10:26:15.624Z,22.57
2022-08-17T10:29:13.354Z,22.18
2022-08-17T10:31:55.662Z,23.04
2022-08-17T10:35:09.012Z,23.00
2022-08-17T10:38:13.729Z,22.05
2022-08-17T10:40:53.428Z,21.92
2022-08-17T10:43:31.111Z,22.18
2022-08-17T10:46:10.496Z,22.58
2022-08-17T10:49:23.772Z,21.74
2022-08-17T10:51:56.289Z,22.19
2022-08-17T10:54:24.018Z,20.91
2022-08-17T10:56:56.572Z,20.80
2022-08-17T10:59:36.419Z,21.05
2022-08-17T11:02:16.217Z,21.55
2022-08-17T11:05:22.334Z,21.98
2022-08-17T11:07:58.901Z,22.50
2022-08-17T11:10:38.989Z,23.49
2022-08-17T11:13:43.183Z,23.54
2022-08-17T11:16:35.988Z,23.84
2022-08-17T11:19:28.617Z,24.28
2022-08-17T11:22:09.180Z,24.15
2022-08-17T11:24:43.359Z,25.07
2022-08-17T11:27:22.110Z,24.47
2022-08-17T11:30:12.857Z,24.41
2022-08-17T11:33:00.382Z,24.79
2022-08-17T11:35:48.520Z,24.43
2022-08-17T11:38:28.399Z,24.14
2022-08-17T11:41:14.757Z,24.09
2022-08-17T11:44:04.006Z,23.71
2022-08-17T11:47:15.066Z,24.14
2022-08-17T11:50:16.803Z,23.80
2022-08-17T11:52:47.986Z,24.16
2022-08-17T11:55:40.760Z,23.89
2022-08-17T11:58:37.413Z,24.26
2022-08-17T12:01:08.544Z,24.18
2022-08-17T12:03:38.950Z,24.22
2022-08-17T12:06:31.046Z,23.64
2022-08-17T12:09:20.208Z,23.04
2022-08-17T12:12:11.369Z,22.90
2022-08-17T12:15:11.368Z,22.63
2022-08-17T12:17:42.912Z,21.89
2022-08-17T12:20:29.570Z,21.77
2022-08-17T12:23:12.052Z,21.67
2022-08-17T12:25:47.884Z,21.28
2022-08-17T12:28:26.460Z,20.90
2022-08-17T12:30:57.055Z,21.21
2022-08-17T12:33:27.909Z,21.66
2022-08-17T12:35:59.683Z,22.21
2022-08-17T12:38:34.533Z,21.43
2022-08-17T12:41:25.609Z,20.85
2022-08-17T12:44:02.421Z,21.05
2022-08-17T12:46:44.939Z,20.48
2022-08-17T12:49:36.467Z,20.15
2022-08-17T12:52:20.348Z,20.54
2022-08-17T12:54:51.617Z,20.04
2022-08-17T12:57:33.133Z,18.89
2022-08-17T13:00:21.054Z,19.14
2022-08-17T13:02:52.104Z,20.36
2022-08-17T13:05:36.058Z,19.73
2022-08-17T13:08:05.927Z,19.64
2022-08-17T13:10:39.161Z,20.00
2022-08-17T13:13:41.180Z,21.19
2022-08-17T13:16:11.609Z,19.99
2022-08-17T13:18:43.480Z,19.91
2022-08-17T13:21:20.006Z,19.20
2022-08-17T13:23:57.213Z,19.75
2022-08-17T13:26:30.024Z,19.34
2022-08-17T13:28:58.453Z,18.58
2022-08-17T13:31:27.923Z,18.54
2022-08-17T13:34:14.688Z,19.63
2022-08-17T13:36:44.058Z,18.84
2022-08-17T13:39:16.873Z,20.06
2022-08-17T13:41:44.959Z,19.56
2022-08-17T13:44:32.253Z,19.35
2022-08-17T13:47:02.043Z,19.05
2022-08-17T13:49:41.937Z,18.89
2022-08-17T13:52:32.091Z,19.24
2022-08-17T13:55:30.129Z,19.30
2022-08-17T13:58:05.052Z,19.80
2022-08-17T14:00:37.459Z,19.90
2022-08-17T14:03:08.975Z,20.04
2022-08-17T14:05:40.790Z,20.29
2022-08-17T14:08:12.008Z,20.46
2022-08-17T14:10:39.999Z,20.21
2022-08-17T14:13:07.901Z,20.52
2022-08-17T14:15:56.041Z,20.16
2022-08-17T14:18:50.650Z,20.12
2022-08-17T14:21:11.293Z,19.68
2022-08-17T14:23:39.320Z,20.11
2022-08-17T14:26:10.470Z,19.29
2022-08-17T14:28:38.800Z,19.35
2022-08-17T14:31:22.657Z,19.09
2022-08-17T14:33:52.173Z,19.26
2022-08-17T14:36:19.802Z,19.03
2022-08-17T14:38:47.604Z,19.22
2022-08-17T14:41:21.455Z,19.98
2022-08-17T14:43:52.927Z,19.09
2022-08-17T14:46:20.545Z,19.11
2022-08-17T14:48:50.812Z,19.05
2022-08-17T14:51:23.318Z,19.33
2022-08-17T14:53:50.835Z,18.55
2022-08-17T14:56:18.450Z,18.85
2022-08-17T14:58:46.338Z,19.34
2022-08-17T15:01:14.441Z,19.36
2022-08-17T15:03:42.376Z,19.58
2022-08-17T15:06:14.762Z,18.79
2022-08-17T15:08:44.126Z,18.66
2022-08-17T15:11:14.443Z,19.00
2022-08-17T15:13:52.469Z,18.60
2022-08-17T15:16:20.954Z,19.30
2022-08-17T15:18:49.158Z,19.00
2022-08-17T15:21:19.261Z,19.21
2022-08-17T15:23:47.801Z,19.21
2022-08-17T15:26:15.358Z,19.35
2022-08-17T15:28:42.911Z,18.84
2022-08-17T15:31:10.846Z,18.84
2022-08-17T15:33:38.410Z,18.72
2022-08-17T15:36:07.449Z,19.27
2022-08-17T15:38:42.149Z,19.18
2022-08-17T15:41:15.384Z,19.26
2022-08-17T15:43:52.571Z,19.99
2022-08-17T15:46:25.645Z,19.66
2022-08-17T15:49:00.139Z,19.95
2022-08-17T15:51:36.517Z,19.45
2022-08-17T15:54:18.711Z,19.22
2022-08-17T15:56:49.622Z,19.61
2022-08-17T15:59:17.339Z,19.42
2022-08-17T16:03:14.560Z,19.56
2022-08-17T16:04:43.964Z,19.28
2022-08-17T16:07:17.491Z,19.03
2022-08-17T16:09:45.528Z,19.04
2022-08-17T16:12:16.643Z,19.29
2022-08-17T16:14:47.183Z,19.71
2022-08-17T16:17:39.912Z,19.19
2022-08-17T16:20:03.735Z,19.39
2022-08-17T16:22:39.602Z,19.01
2022-08-17T16:25:17.566Z,19.44
2022-08-17T16:27:46.633Z,19.46
2022-08-17T16:30:17.565Z,19.33
2022-08-17T16:32:47.032Z,19.07
2022-08-17T16:35:18.542Z,19.41
2022-08-17T16:37:46.994Z,19.75
2022-08-17T16:40:18.127Z,19.37
2022-08-17T16:42:48.508Z,19.34
2022-08-17T16:45:20.238Z,19.41
2022-08-17T16:47:50.959Z,20.05
2022-08-17T16:50:23.091Z,19.76
2022-08-17T16:52:53.103Z,19.55
2022-08-17T16:55:22.316Z,19.61
2022-08-17T16:57:51.677Z,19.53
2022-08-17T17:00:20.961Z,19.49
2022-08-17T17:02:51.499Z,19.89
2022-08-17T17:05:19.391Z,19.91
2022-08-17T17:08:07.732Z,19.99
2022-08-17T17:10:48.461Z,20.29
2022-08-17T17:13:59.706Z,20.26
2022-08-17T17:16:53.040Z,20.20
2022-08-17T17:19:35.755Z,20.31
2022-08-17T17:22:08.070Z,20.62
2022-08-17T17:24:56.548Z,20.42
2022-08-17T17:27:37.753Z,20.57
2022-08-17T17:30:16.199Z,21.40
2022-08-17T17:33:04.247Z,21.23
2022-08-17T17:35:57.125Z,21.15
2022-08-17T17:38:29.443Z,21.31
2022-08-17T17:41:04.535Z,21.68
2022-08-17T17:43:39.618Z,21.92
2022-08-17T17:46:28.706Z,22.00
2022-08-17T17:48:58.023Z,22.20
2022-08-17T17:52:06.888Z,22.48
2022-08-17T17:54:40.080Z,22.48
2022-08-17T17:57:24.687Z,22.93
2022-08-17T18:00:23.642Z,23.39
2022-08-17T18:03:15.233Z,23.29
2022-08-17T18:06:02.397Z,23.48
2022-08-17T18:08:49.779Z,23.70
2022-08-17T18:11:34.794Z,23.74
2022-08-17T18:14:30.829Z,23.93
2022-08-17T18:16:59.760Z,23.94
2022-08-17T18:19:32.976Z,24.15
2022-08-17T18:22:06.737Z,24.51
2022-08-17T18:24:36.106Z,24.32
2022-08-17T18:27:25.808Z,24.34
2022-08-17T18:29:56.000Z,25.16
2022-08-17T18:32:27.651Z,25.07
2022-08-17T18:34:55.470Z,25.41
2022-08-17T18:37:42.705Z,25.15
2022-08-17T18:40:19.812Z,25.45
2022-08-17T18:43:08.769Z,25.47
2022-08-17T18:45:51.966Z,25.68
2022-08-17T18:48:37.128Z,25.52
2022-08-17T18:51:39.731Z,25.81
2022-08-17T18:54:21.529Z,25.59
2022-08-17T18:56:58.147Z,25.91
2022-08-17T18:59:45.422Z,25.74
2022-08-17T19:02:27.238Z,26.08
2022-08-17T19:05:10.652Z,26.74
2022-08-17T19:07:47.002Z,26.21
2022-08-17T19:10:25.174Z,26.30
2022-08-17T19:13:12.308Z,26.46
2022-08-17T19:16:11.752Z,26.66
2022-08-17T19:19:04.340Z,26.90
2022-08-17T19:21:40.431Z,27.21
2022-08-17T19:24:19.555Z,27.44
2022-08-17T19:26:56.688Z,27.88
2022-08-17T19:29:46.106Z,28.25
2022-08-17T19:32:20.164Z,28.47
2022-08-17T19:34:49.368Z,28.76
2022-08-17T19:37:40.881Z,28.59
2022-08-17T19:40:52.136Z,28.44
2022-08-17T19:43:33.103Z,28.84
2022-08-17T19:46:26.028Z,28.96
2022-08-17T19:49:00.308Z,29.26
2022-08-17T19:51:43.829Z,29.19
2022-08-17T19:54:34.419Z,29.37
2022-08-17T19:57:08.349Z,29.33
2022-08-17T20:00:08.734Z,29.53
2022-08-17T20:02:42.446Z,29.36
2022-08-17T20:05:16.903Z,29.65
2022-08-17T20:08:00.331Z,29.68
2022-08-17T20:10:48.110Z,30.09
2022-08-17T20:13:43.979Z,30.13
2022-08-17T20:16:12.250Z,30.01
2022-08-17T20:18:55.867Z,30.27
2022-08-17T20:21:29.111Z,30.44
2022-08-17T20:24:06.453Z,30.51
2022-08-17T20:26:51.241Z,30.45
2022-08-17T20:29:40.219Z,30.33
2022-08-17T20:32:17.828Z,30.45
2022-08-17T20:34:47.658Z,30.78
2022-08-17T20:37:15.263Z,30.62
2022-08-17T20:39:46.781Z,31.23
2022-08-17T20:42:20.666Z,31.51
2022-08-17T20:44:51.313Z,31.26
2022-08-17T20:47:28.608Z,31.10
2022-08-17T20:50:13.003Z,30.98
2022-08-17T20:52:46.977Z,31.09
2022-08-17T20:55:51.341Z,30.98
2022-08-17T20:58:37.076Z,30.94
2022-08-17T21:01:40.431Z,31.22
2022-08-17T21:04:47.392Z,31.30
2022-08-17T21:07:41.061Z,31.33
2022-08-17T21:10:35.711Z,31.77
2022-08-17T21:13:15.550Z,31.93
2022-08-17T21:15:48.604Z,31.95
2022-08-17T21:18:28.356Z,32.00
2022-08-17T21:21:24.252Z,32.10
2022-08-17T21:24:11.675Z,31.98
2022-08-17T21:26:58.213Z,32.52
2022-08-17T21:29:31.067Z,32.39
2022-08-17T21:32:05.512Z,32.48
2022-08-17T21:34:43.213Z,32.57
2022-08-17T21:37:20.314Z,32.50
2022-08-17T21:39:53.598Z,33.01
2022-08-17T21:42:34.020Z,32.66
2022-08-17T21:45:38.893Z,32.59
2022-08-17T21:48:14.536Z,32.35
2022-08-17T21:50:44.976Z,32.43
2022-08-17T21:53:21.740Z,32.48
2022-08-17T21:55:50.538Z,32.87
2022-08-17T21:58:40.417Z,33.04
2022-08-17T22:01:21.990Z,33.26
2022-08-17T22:04:01.715Z,33.31
2022-08-17T22:06:38.334Z,34.79
2022-08-17T22:09:10.694Z,34.38
2022-08-17T22:11:58.174Z,35.01
2022-08-17T22:14:52.913Z,33.97
2022-08-17T22:17:22.892Z,33.99
2022-08-17T22:19:54.078Z,34.19
2022-08-17T22:22:28.758Z,34.30
2022-08-17T22:24:59.416Z,33.98
2022-08-17T22:27:49.290Z,33.49
2022-08-17T22:30:26.159Z,33.52
2022-08-17T22:32:54.114Z,33.58
2022-08-17T22:35:32.630Z,34.04
2022-08-17T22:38:18.494Z,33.84
2022-08-17T22:40:52.018Z,34.08
2022-08-17T22:43:26.233Z,33.98
2022-08-17T22:45:56.918Z,33.83
2022-08-17T22:48:28.383Z,33.79
2022-08-17T22:51:13.947Z,33.91
2022-08-17T22:54:09.943Z,34.16
2022-08-17T22:56:56.985Z,33.81
2022-08-17T22:59:46.031Z,34.09
2022-08-17T23:02:19.251Z,34.10
2022-08-17T23:04:51.320Z,34.07
2022-08-17T23:07:20.661Z,34.30
2022-08-17T23:09:48.308Z,34.41
2022-08-17T23:12:23.621Z,34.63
2022-08-17T23:14:56.888Z,34.50
2022-08-17T23:17:24.509Z,34.74
2022-08-17T23:19:53.181Z,34.91
2022-08-17T23:22:20.751Z,34.73
2022-08-17T23:24:51.526Z,34.39
2022-08-17T23:27:20.265Z,34.87
2022-08-17T23:29:48.722Z,34.63
2022-08-17T23:32:17.907Z,34.98
2022-08-17T23:34:48.778Z,35.06
2022-08-17T23:37:17.863Z,34.91
2022-08-17T23:39:45.821Z,34.80
2022-08-17T23:42:17.412Z,34.92
2022-08-17T23:44:46.182Z,34.58
2022-08-17T23:47:14.664Z,35.20
2022-08-17T23:49:42.555Z,34.92
2022-08-17T23:52:15.148Z,34.47
2022-08-17T23:54:46.645Z,34.30
2022-08-17T23:57:16.813Z,34.73
2022-08-17T23:59:45.080Z,34.59
